createdAt,value
2019-01-20T00:00:54.167Z,92.93
2019-01-20T00:03:25.251Z,92.93
2019-01-20T00:05:54.750Z,92.66
2019-01-20T00:08:24.258Z,93.20
2019-01-20T00:10:54.041Z,93.06
2019-01-20T00:13:23.560Z,93.54
2019-01-20T00:15:53.356Z,92.96
2019-01-20T00:18:22.819Z,93.59
2019-01-20T00:20:52.391Z,92.34
2019-01-20T00:23:22.218Z,92.34
2019-01-20T00:25:51.765Z,92.50
2019-01-20T00:28:21.211Z,92.41
2019-01-20T00:30:50.714Z,92.41
2019-01-20T00:33:20.173Z,92.80
2019-01-20T00:35:49.636Z,93.18
2019-01-20T00:38:19.166Z,93.60
2019-01-20T00:40:48.630Z,93.38
2019-01-20T00:43:18.102Z,94.11
2019-01-20T00:45:47.886Z,94.11
2019-01-20T00:48:17.373Z,93.87
2019-01-20T00:50:46.895Z,94.25
2019-01-20T00:53:16.377Z,94.29
2019-01-20T00:55:45.881Z,94.57
2019-01-20T00:58:15.315Z,94.48
2019-01-20T01:00:44.808Z,94.22
2019-01-20T01:03:14.581Z,94.08
2019-01-20T01:05:44.132Z,93.83
2019-01-20T01:08:17.071Z,93.57
2019-01-20T01:10:46.603Z,94.26
2019-01-20T01:13:16.064Z,94.35
2019-01-20T01:15:46.150Z,94.35
2019-01-20T01:18:15.613Z,94.28
2019-01-20T01:20:45.419Z,94.15
2019-01-20T01:23:14.969Z,94.68
2019-01-20T01:25:44.758Z,94.59
2019-01-20T01:28:14.202Z,94.70
2019-01-20T01:30:43.703Z,94.67
2019-01-20T01:33:13.170Z,94.39
2019-01-20T01:35:42.714Z,94.39
2019-01-20T01:38:12.342Z,94.58
2019-01-20T01:40:41.821Z,94.01
2019-01-20T01:43:11.361Z,94.59
2019-01-20T01:45:40.810Z,94.59
2019-01-20T01:48:10.357Z,94.26
2019-01-20T01:50:39.798Z,94.08
2019-01-20T01:53:09.324Z,94.08
2019-01-20T01:55:39.208Z,93.98
2019-01-20T01:58:08.662Z,94.91
2019-01-20T02:00:38.443Z,94.14
2019-01-20T02:03:10.025Z,94.14
2019-01-20T02:05:39.469Z,93.96
2019-01-20T02:08:08.935Z,93.80
2019-01-20T02:10:38.899Z,93.80
2019-01-20T02:13:09.982Z,94.35
2019-01-20T02:15:39.588Z,94.81
2019-01-20T02:18:09.386Z,95.12
2019-01-20T02:20:38.834Z,95.12
2019-01-20T02:23:08.341Z,94.59
2019-01-20T02:25:37.816Z,94.07
2019-01-20T02:28:07.292Z,94.07
2019-01-20T02:30:36.734Z,94.55
2019-01-20T02:33:06.284Z,94.30
2019-01-20T02:35:36.462Z,94.36
2019-01-20T02:38:07.799Z,94.14
2019-01-20T02:40:37.320Z,94.84
2019-01-20T02:43:07.056Z,94.84
2019-01-20T02:45:36.520Z,94.37
2019-01-20T02:48:05.975Z,94.61
2019-01-20T02:50:35.693Z,95.08
2019-01-20T02:53:05.203Z,95.08
2019-01-20T02:55:34.674Z,94.80
2019-01-20T02:58:04.302Z,94.81
2019-01-20T03:00:33.731Z,94.81
2019-01-20T03:03:03.248Z,95.11
2019-01-20T03:05:32.664Z,95.11
2019-01-20T03:08:03.701Z,95.79
2019-01-20T03:10:33.648Z,95.78
2019-01-20T03:13:03.126Z,96.44
2019-01-20T03:15:32.556Z,97.55
2019-01-20T03:18:02.040Z,97.41
2019-01-20T03:20:31.842Z,97.55
2019-01-20T03:23:01.420Z,97.57
2019-01-20T03:25:30.875Z,98.17
2019-01-20T03:28:00.677Z,97.35
2019-01-20T03:30:30.480Z,97.86
2019-01-20T03:33:00.304Z,98.03
2019-01-20T03:35:29.751Z,97.89
2019-01-20T03:37:59.286Z,98.23
2019-01-20T03:40:28.729Z,98.82
2019-01-20T03:42:58.188Z,98.00
2019-01-20T03:45:27.654Z,98.32
2019-01-20T03:47:57.100Z,98.37
2019-01-20T03:50:26.543Z,98.46
2019-01-20T03:52:56.245Z,98.22
2019-01-20T03:55:25.702Z,98.16
2019-01-20T03:57:55.153Z,98.39
2019-01-20T04:00:25.135Z,98.12
2019-01-20T04:02:56.650Z,98.32
2019-01-20T04:05:26.095Z,98.73
2019-01-20T04:07:55.940Z,98.73
2019-01-20T04:10:25.474Z,98.43
2019-01-20T04:12:54.956Z,98.53
2019-01-20T04:15:24.467Z,99.08
2019-01-20T04:17:53.858Z,98.66
2019-01-20T04:20:23.406Z,99.00
2019-01-20T04:22:52.876Z,98.80
2019-01-20T04:25:22.324Z,98.80
2019-01-20T04:27:52.114Z,98.15
2019-01-20T04:30:21.596Z,97.67
2019-01-20T04:32:51.153Z,97.45
2019-01-20T04:35:20.624Z,97.95
2019-01-20T04:37:50.170Z,98.93
2019-01-20T04:40:21.153Z,98.75
2019-01-20T04:42:50.615Z,98.71
2019-01-20T04:45:20.057Z,99.25
2019-01-20T04:47:49.631Z,99.55
2019-01-20T04:50:21.163Z,99.55
2019-01-20T04:52:50.696Z,99.22
2019-01-20T04:55:20.151Z,99.45
2019-01-20T04:57:50.976Z,98.79
2019-01-20T05:00:22.565Z,98.18
2019-01-20T05:02:52.033Z,98.14
2019-01-20T05:05:22.199Z,98.42
2019-01-20T05:07:52.197Z,98.96
2019-01-20T05:10:21.655Z,99.09
2019-01-20T05:12:51.182Z,99.66
2019-01-20T05:15:22.285Z,99.68
2019-01-20T05:17:51.746Z,100.00
2019-01-20T05:20:21.214Z,100.00
2019-01-20T05:22:50.984Z,99.98
2019-01-20T05:25:20.430Z,100.00
2019-01-20T05:27:49.894Z,100.00
2019-01-20T05:30:21.650Z,99.60
2019-01-20T05:32:51.106Z,99.61
2019-01-20T05:35:20.934Z,99.45
2019-01-20T05:37:50.420Z,100.00
2019-01-20T05:40:21.126Z,100.00
2019-01-20T05:42:50.595Z,99.88
2019-01-20T05:45:22.241Z,99.68
2019-01-20T05:47:51.718Z,99.94
2019-01-20T05:50:21.156Z,99.50
2019-01-20T05:52:50.628Z,99.69
2019-01-20T05:55:20.073Z,99.90
2019-01-20T05:57:49.611Z,99.63
2019-01-20T06:00:25.003Z,98.95
2019-01-20T06:02:55.532Z,98.95
2019-01-20T06:05:24.988Z,99.34
2019-01-20T06:07:56.094Z,99.00
2019-01-20T06:10:25.694Z,99.41
2019-01-20T06:12:55.172Z,99.50
2019-01-20T06:15:24.916Z,99.90
2019-01-20T06:17:54.550Z,99.81
2019-01-20T06:20:24.165Z,99.17
2019-01-20T06:22:53.948Z,98.83
2019-01-20T06:25:23.389Z,98.45
2019-01-20T06:27:53.077Z,98.66
2019-01-20T06:30:28.084Z,98.73
2019-01-20T06:32:57.906Z,98.43
2019-01-20T06:35:28.537Z,98.67
2019-01-20T06:37:58.016Z,98.65
2019-01-20T06:40:27.482Z,98.92
2019-01-20T06:43:01.798Z,99.27
2019-01-20T06:45:28.432Z,99.75
2019-01-20T06:47:57.883Z,99.75
2019-01-20T06:50:27.370Z,99.61
2019-01-20T06:52:56.829Z,99.61
2019-01-20T06:55:26.319Z,100.00
2019-01-20T06:57:56.039Z,99.81
2019-01-20T07:00:25.632Z,99.48
2019-01-20T07:02:55.187Z,99.47
2019-01-20T07:05:24.971Z,99.79
2019-01-20T07:07:54.805Z,99.58
2019-01-20T07:10:24.343Z,99.44
2019-01-20T07:12:53.806Z,99.38
2019-01-20T07:15:24.064Z,99.38
2019-01-20T07:17:53.511Z,99.06
2019-01-20T07:20:22.997Z,98.50
2019-01-20T07:22:53.737Z,98.86
2019-01-20T07:25:23.235Z,98.15
2019-01-20T07:27:52.943Z,97.96
2019-01-20T07:30:23.058Z,97.13
2019-01-20T07:32:52.529Z,96.80
2019-01-20T07:35:22.329Z,95.76
2019-01-20T07:37:52.440Z,94.76
2019-01-20T07:40:22.677Z,94.18
2019-01-20T07:42:54.934Z,92.43
2019-01-20T07:45:25.053Z,92.43
2019-01-20T07:47:54.884Z,91.96
2019-01-20T07:50:25.265Z,91.13
2019-01-20T07:52:55.453Z,90.14
2019-01-20T07:55:24.931Z,88.97
2019-01-20T07:57:54.388Z,87.22
2019-01-20T08:00:25.160Z,84.96
2019-01-20T08:02:54.613Z,82.47
2019-01-20T08:05:24.101Z,78.68
2019-01-20T08:07:53.618Z,77.25
2019-01-20T08:10:25.274Z,74.68
2019-01-20T08:12:54.808Z,71.81
2019-01-20T08:15:24.339Z,70.61
2019-01-20T08:17:53.814Z,68.69
2019-01-20T08:20:24.612Z,67.40
2019-01-20T08:22:54.191Z,64.06
2019-01-20T08:25:23.659Z,64.11
2019-01-20T08:27:53.304Z,61.62
2019-01-20T08:30:24.795Z,60.06
2019-01-20T08:32:54.416Z,59.36
2019-01-20T08:35:24.238Z,57.87
2019-01-20T08:37:54.130Z,54.81
2019-01-20T08:40:28.249Z,53.51
2019-01-20T08:42:58.026Z,53.51
2019-01-20T08:45:51.431Z,52.86
2019-01-20T08:48:23.419Z,50.50
2019-01-20T08:50:53.916Z,51.89
2019-01-20T08:53:23.370Z,51.62
2019-01-20T08:55:52.864Z,49.17
2019-01-20T08:58:22.633Z,48.58
2019-01-20T09:00:52.111Z,49.55
2019-01-20T09:03:21.857Z,49.76
2019-01-20T09:05:51.314Z,47.84
2019-01-20T09:08:21.963Z,48.65
2019-01-20T09:10:51.716Z,48.22
2019-01-20T09:13:21.605Z,48.26
2019-01-20T09:15:51.047Z,48.76
2019-01-20T09:18:20.519Z,50.37
2019-01-20T09:20:49.984Z,47.58
2019-01-20T09:23:19.447Z,48.41
2019-01-20T09:25:48.945Z,47.97
2019-01-20T09:28:18.406Z,48.67
2019-01-20T09:30:47.901Z,52.04
2019-01-20T09:33:24.567Z,49.35
2019-01-20T09:35:48.507Z,50.71
2019-01-20T09:38:17.963Z,50.79
2019-01-20T09:40:47.425Z,51.11
2019-01-20T09:43:16.877Z,47.38
2019-01-20T09:45:46.711Z,46.16
2019-01-20T09:48:16.150Z,47.69
2019-01-20T09:50:45.910Z,48.84
2019-01-20T09:53:15.732Z,49.99
2019-01-20T09:55:45.544Z,48.68
2019-01-20T09:58:15.007Z,50.78
2019-01-20T10:00:44.517Z,49.89
2019-01-20T10:03:16.365Z,49.94
2019-01-20T10:05:45.120Z,49.00
2019-01-20T10:08:14.618Z,48.21
2019-01-20T10:10:44.093Z,49.49
2019-01-20T10:13:13.544Z,50.97
2019-01-20T10:15:43.390Z,49.81
2019-01-20T10:18:13.076Z,46.84
2019-01-20T10:20:42.563Z,48.47
2019-01-20T10:23:12.009Z,47.98
2019-01-20T10:25:41.484Z,49.87
2019-01-20T10:28:11.011Z,48.98
2019-01-20T10:30:40.929Z,48.42
2019-01-20T10:33:10.382Z,46.50
2019-01-20T10:35:41.486Z,50.06
2019-01-20T10:38:11.657Z,47.81
2019-01-20T10:40:41.121Z,48.38
2019-01-20T10:43:10.603Z,49.36
2019-01-20T10:45:40.064Z,48.39
2019-01-20T10:48:09.875Z,46.39
2019-01-20T10:50:39.715Z,47.55
2019-01-20T10:53:09.512Z,45.82
2019-01-20T10:55:38.987Z,45.32
2019-01-20T10:58:08.787Z,45.11
2019-01-20T11:00:40.203Z,44.83
2019-01-20T11:03:09.677Z,43.61
2019-01-20T11:05:39.225Z,43.36
2019-01-20T11:08:08.663Z,44.45
2019-01-20T11:10:39.944Z,46.33
2019-01-20T11:13:09.889Z,45.71
2019-01-20T11:15:39.400Z,47.32
2019-01-20T11:18:08.905Z,45.11
2019-01-20T11:20:38.706Z,44.26
2019-01-20T11:23:08.450Z,45.25
2019-01-20T11:25:40.209Z,43.79
2019-01-20T11:28:10.098Z,42.35
2019-01-20T11:30:39.662Z,42.79
2019-01-20T11:33:09.180Z,41.23
2019-01-20T11:35:39.033Z,42.99
2019-01-20T11:38:08.500Z,42.96
2019-01-20T11:40:38.225Z,43.68
2019-01-20T11:43:07.687Z,42.86
2019-01-20T11:45:37.201Z,42.20
2019-01-20T11:48:07.171Z,41.76
2019-01-20T11:50:36.626Z,40.72
2019-01-20T11:53:06.237Z,38.48
2019-01-20T11:55:35.868Z,40.03
2019-01-20T11:58:05.421Z,39.63
2019-01-20T12:00:35.678Z,38.81
2019-01-20T12:03:05.457Z,38.65
2019-01-20T12:05:35.208Z,38.96
2019-01-20T12:08:05.109Z,39.35
2019-01-20T12:10:34.648Z,40.92
2019-01-20T12:13:06.030Z,39.28
2019-01-20T12:15:35.709Z,39.93
2019-01-20T12:18:05.507Z,39.60
2019-01-20T12:20:35.073Z,39.54
2019-01-20T12:23:05.295Z,39.11
2019-01-20T12:25:35.113Z,39.26
2019-01-20T12:28:05.129Z,40.37
2019-01-20T12:30:37.100Z,39.26
2019-01-20T12:33:06.959Z,38.94
2019-01-20T12:35:36.788Z,39.99
2019-01-20T12:38:06.321Z,39.95
2019-01-20T12:40:38.905Z,39.89
2019-01-20T12:43:08.384Z,41.42
2019-01-20T12:45:37.841Z,42.06
2019-01-20T12:48:07.422Z,41.55
2019-01-20T12:50:36.943Z,41.47
2019-01-20T12:53:06.413Z,39.90
2019-01-20T12:55:35.943Z,41.03
2019-01-20T12:58:05.868Z,40.90
2019-01-20T13:00:35.379Z,39.84
2019-01-20T13:03:05.531Z,39.44
2019-01-20T13:05:35.082Z,39.98
2019-01-20T13:08:04.703Z,39.84
2019-01-20T13:10:34.163Z,40.57
2019-01-20T13:13:03.847Z,41.50
2019-01-20T13:15:33.398Z,41.62
2019-01-20T13:18:02.898Z,40.43
2019-01-20T13:20:32.370Z,39.65
2019-01-20T13:23:02.039Z,40.29
2019-01-20T13:25:33.587Z,40.09
2019-01-20T13:28:03.130Z,41.05
2019-01-20T13:30:32.673Z,41.52
2019-01-20T13:33:02.149Z,41.51
2019-01-20T13:35:31.691Z,43.18
2019-01-20T13:38:04.013Z,43.42
2019-01-20T13:40:42.574Z,44.68
2019-01-20T13:43:12.063Z,42.02
2019-01-20T13:45:41.886Z,42.41
2019-01-20T13:48:11.641Z,41.84
2019-01-20T13:50:41.164Z,40.38
2019-01-20T13:53:11.230Z,41.11
2019-01-20T13:55:40.778Z,42.51
2019-01-20T13:58:10.645Z,42.07
2019-01-20T14:00:40.137Z,42.75
2019-01-20T14:03:09.856Z,42.91
2019-01-20T14:05:39.765Z,43.25
2019-01-20T14:08:11.202Z,43.44
2019-01-20T14:10:41.053Z,42.87
2019-01-20T14:13:10.977Z,43.93
2019-01-20T14:15:40.729Z,44.01
2019-01-20T14:18:10.430Z,44.19
2019-01-20T14:20:39.944Z,43.97
2019-01-20T14:23:09.856Z,44.09
2019-01-20T14:25:39.404Z,44.18
2019-01-20T14:28:08.957Z,45.22
2019-01-20T14:30:38.428Z,47.60
2019-01-20T14:33:08.290Z,48.94
2019-01-20T14:35:37.870Z,50.41
2019-01-20T14:38:07.408Z,51.70
2019-01-20T14:40:38.005Z,51.93
2019-01-20T14:43:07.580Z,53.33
2019-01-20T14:45:37.036Z,54.41
2019-01-20T14:48:06.730Z,55.71
2019-01-20T14:50:36.296Z,55.52
2019-01-20T14:53:05.839Z,57.04
2019-01-20T14:55:36.108Z,57.52
2019-01-20T14:58:05.867Z,59.19
2019-01-20T15:00:38.525Z,59.65
2019-01-20T15:03:08.590Z,60.42
2019-01-20T15:05:38.059Z,60.88
2019-01-20T15:08:08.550Z,61.01
2019-01-20T15:10:38.112Z,62.20
2019-01-20T15:13:08.914Z,62.83
2019-01-20T15:15:40.049Z,64.27
2019-01-20T15:22:05.182Z,65.96
2019-01-20T15:24:34.657Z,66.31
2019-01-20T15:27:04.143Z,67.30
2019-01-20T15:29:33.615Z,68.53
2019-01-20T15:32:03.089Z,69.25
2019-01-20T15:34:32.886Z,70.16
2019-01-20T15:37:02.377Z,70.40
2019-01-20T15:39:31.843Z,70.93
2019-01-20T15:42:01.297Z,71.93
2019-01-20T15:44:30.773Z,72.40
2019-01-20T15:47:00.585Z,73.13
2019-01-20T15:49:30.057Z,72.67
2019-01-20T15:51:59.796Z,73.00
2019-01-20T15:54:29.377Z,73.15
2019-01-20T15:57:01.309Z,73.55
2019-01-20T15:59:30.954Z,74.00
2019-01-20T16:02:00.539Z,73.65
2019-01-20T16:04:30.162Z,74.07
2019-01-20T16:06:59.630Z,73.66
2019-01-20T16:09:29.121Z,73.86
2019-01-20T16:11:58.688Z,74.07
2019-01-20T16:14:28.183Z,74.12
2019-01-20T16:16:57.690Z,75.12
2019-01-20T16:19:27.547Z,75.31
2019-01-20T16:21:57.273Z,75.60
2019-01-20T16:24:27.063Z,76.59
2019-01-20T16:27:00.923Z,76.32
2019-01-20T16:29:27.890Z,76.10
2019-01-20T16:32:08.686Z,76.40
2019-01-20T16:34:38.170Z,76.78
2019-01-20T16:37:08.128Z,76.59
2019-01-20T16:39:37.671Z,77.58
2019-01-20T16:42:07.690Z,77.03
2019-01-20T16:44:37.179Z,77.96
2019-01-20T16:47:06.644Z,77.62
2019-01-20T16:49:36.114Z,78.00
2019-01-20T16:52:05.907Z,78.09
2019-01-20T16:54:37.277Z,78.60
2019-01-20T16:57:06.748Z,78.58
2019-01-20T16:59:36.528Z,78.74
2019-01-20T17:02:05.992Z,79.21
2019-01-20T17:04:35.460Z,78.90
2019-01-20T17:07:05.268Z,79.25
2019-01-20T17:09:34.803Z,79.39
2019-01-20T17:12:04.445Z,79.71
2019-01-20T17:14:34.028Z,79.22
2019-01-20T17:17:03.759Z,79.60
2019-01-20T17:19:33.223Z,79.33
2019-01-20T17:22:02.671Z,79.66
2019-01-20T17:24:32.133Z,79.48
2019-01-20T17:27:01.589Z,79.99
2019-01-20T17:29:31.112Z,79.86
2019-01-20T17:32:00.561Z,79.71
2019-01-20T17:34:30.109Z,79.61
2019-01-20T17:36:59.559Z,79.27
2019-01-20T17:39:29.022Z,79.61
2019-01-20T17:41:58.857Z,79.80
2019-01-20T17:44:30.346Z,79.98
2019-01-20T17:46:59.799Z,79.64
2019-01-20T17:49:29.526Z,79.43
2019-01-20T17:51:59.470Z,79.79
2019-01-20T17:54:28.994Z,80.00
2019-01-20T17:56:58.475Z,80.57
2019-01-20T17:59:28.009Z,80.35
2019-01-20T18:01:57.481Z,81.77
2019-01-20T18:04:26.962Z,81.78
2019-01-20T18:06:56.447Z,82.27
2019-01-20T18:09:26.312Z,82.96
2019-01-20T18:11:56.116Z,83.64
2019-01-20T18:14:25.877Z,83.81
2019-01-20T18:16:55.337Z,83.80
2019-01-20T18:19:24.842Z,92.63
2019-01-20T18:21:54.556Z,88.18
2019-01-20T18:24:24.027Z,79.25
2019-01-20T18:26:53.495Z,80.69
2019-01-20T18:29:22.944Z,81.46
2019-01-20T18:31:52.675Z,82.85
2019-01-20T18:34:22.170Z,83.47
2019-01-20T18:36:51.649Z,84.15
2019-01-20T18:39:21.395Z,84.61
2019-01-20T18:41:50.860Z,85.67
2019-01-20T18:44:20.362Z,85.45
2019-01-20T18:46:49.821Z,86.36
2019-01-20T18:49:19.297Z,86.26
2019-01-20T18:51:48.765Z,86.82
2019-01-20T18:54:18.795Z,87.04
2019-01-20T18:56:48.757Z,86.65
2019-01-20T18:59:18.340Z,87.36
2019-01-20T19:01:47.855Z,88.36
2019-01-20T19:04:17.567Z,87.47
2019-01-20T19:06:47.030Z,87.85
2019-01-20T19:09:16.476Z,87.87
2019-01-20T19:11:46.027Z,87.90
2019-01-20T19:14:15.589Z,88.29
2019-01-20T19:16:45.151Z,88.77
2019-01-20T19:19:14.958Z,89.26
2019-01-20T19:21:44.424Z,89.14
2019-01-20T19:24:14.212Z,89.44
2019-01-20T19:26:43.869Z,89.63
2019-01-20T19:29:13.666Z,89.94
2019-01-20T19:31:43.479Z,90.13
2019-01-20T19:34:13.274Z,90.19
2019-01-20T19:36:43.499Z,90.34
2019-01-20T19:39:12.965Z,90.55
2019-01-20T19:41:42.714Z,91.05
2019-01-20T19:44:12.179Z,90.65
2019-01-20T19:46:41.730Z,91.39
2019-01-20T19:49:11.521Z,91.32
2019-01-20T19:51:41.046Z,90.95
2019-01-20T19:54:10.533Z,91.43
2019-01-20T19:56:40.012Z,91.69
2019-01-20T19:59:09.530Z,92.04
2019-01-20T20:01:39.031Z,91.76
2019-01-20T20:04:08.498Z,92.32
2019-01-20T20:06:38.072Z,92.29
2019-01-20T20:09:10.322Z,92.71
2019-01-20T20:11:40.072Z,92.71
2019-01-20T20:14:09.876Z,93.19
2019-01-20T20:16:39.802Z,93.00
2019-01-20T20:19:09.729Z,93.37
2019-01-20T20:21:40.338Z,92.98
2019-01-20T20:24:10.160Z,93.48
2019-01-20T20:26:40.099Z,93.16
2019-01-20T20:29:09.558Z,93.24
2019-01-20T20:31:39.074Z,93.48
2019-01-20T20:34:08.794Z,93.44
2019-01-20T20:36:38.270Z,93.17
2019-01-20T20:39:08.626Z,93.20
2019-01-20T20:41:38.101Z,93.64
2019-01-20T20:44:07.556Z,93.93
2019-01-20T20:46:37.038Z,94.32
2019-01-20T20:49:06.512Z,94.64
2019-01-20T20:51:35.990Z,94.88
2019-01-20T20:54:05.792Z,95.12
2019-01-20T20:56:35.307Z,95.19
2019-01-20T20:59:05.967Z,95.40
2019-01-20T21:01:35.423Z,95.82
2019-01-20T21:04:04.949Z,95.60
2019-01-20T21:06:34.421Z,95.43
2019-01-20T21:09:05.509Z,95.51
2019-01-20T21:11:36.169Z,95.97
2019-01-20T21:14:06.775Z,96.66
2019-01-20T21:16:37.977Z,96.63
2019-01-20T21:19:07.611Z,96.53
2019-01-20T21:21:37.093Z,96.25
2019-01-20T21:24:06.551Z,96.22
2019-01-20T21:26:36.063Z,96.42
2019-01-20T21:29:05.536Z,96.18
2019-01-20T21:31:35.426Z,96.46
2019-01-20T21:34:04.876Z,96.76
2019-01-20T21:36:34.827Z,96.87
2019-01-20T21:39:06.677Z,96.87
2019-01-20T21:41:36.398Z,96.38
2019-01-20T21:44:05.856Z,96.38
2019-01-20T21:46:35.332Z,96.22
2019-01-20T21:49:04.858Z,95.97
2019-01-20T21:51:34.752Z,95.97
2019-01-20T21:54:04.309Z,95.44
2019-01-20T21:56:34.142Z,95.82
2019-01-20T21:59:03.593Z,96.36
2019-01-20T22:01:33.308Z,97.46
2019-01-20T22:04:02.748Z,97.46
2019-01-20T22:06:32.235Z,97.11
2019-01-20T22:09:01.689Z,97.25
2019-01-20T22:11:31.147Z,97.29
2019-01-20T22:14:00.600Z,97.29
2019-01-20T22:16:30.072Z,97.48
2019-01-20T22:18:59.513Z,97.01
2019-01-20T22:21:28.976Z,97.39
2019-01-20T22:23:58.502Z,97.26
2019-01-20T22:26:27.957Z,96.99
2019-01-20T22:28:57.751Z,96.99
2019-01-20T22:31:27.475Z,97.56
2019-01-20T22:33:57.613Z,97.74
2019-01-20T22:36:27.340Z,97.38
2019-01-20T22:38:56.792Z,97.89
2019-01-20T22:41:26.253Z,97.76
2019-01-20T22:43:55.849Z,96.83
2019-01-20T22:46:25.413Z,97.53
2019-01-20T22:48:54.878Z,97.44
2019-01-20T22:51:24.370Z,97.30
2019-01-20T22:53:54.238Z,97.17
2019-01-20T22:56:23.695Z,96.64
2019-01-20T22:58:53.171Z,97.00
2019-01-20T23:01:23.201Z,96.83
2019-01-20T23:03:53.878Z,97.24
2019-01-20T23:06:23.358Z,97.04
2019-01-20T23:08:52.804Z,97.09
2019-01-20T23:11:22.270Z,97.10
2019-01-20T23:13:52.133Z,97.22
2019-01-20T23:16:21.661Z,97.38
2019-01-20T23:18:51.132Z,98.14
2019-01-20T23:21:21.079Z,98.10
2019-01-20T23:23:50.547Z,97.59
2019-01-20T23:26:20.094Z,98.08
2019-01-20T23:28:49.596Z,98.32
2019-01-20T23:31:19.123Z,98.06
2019-01-20T23:33:48.588Z,98.22
2019-01-20T23:36:18.503Z,98.11
2019-01-20T23:38:47.969Z,98.60
2019-01-20T23:41:17.429Z,98.39
2019-01-20T23:43:47.815Z,98.38
2019-01-20T23:46:17.567Z,98.33
2019-01-20T23:48:52.660Z,98.93
2019-01-20T23:51:22.113Z,98.60
2019-01-20T23:53:51.590Z,98.64
2019-01-20T23:56:21.027Z,98.77
2019-01-20T23:58:50.495Z,98.93
